»·PEaware :: QXE2458 KPDX-KBOI

QXE2458 :: KPDX-KBOI

FLIGHT INFORMATION

Flight Status: Arrived
Operator:
Horizon Air
More flights by this operator :: More flights under this callsign
Pilot: Adlai G. (28854)
Aircraft: DEHAVILLAND DASH 8 400
(DH8D)
More flights by this aircraft type
Origin: KPDX Portland Intl
United States
Destination: KBOI Boise Air Terminal/Gowen
United States
More flights between these airports :: More routes between these airports
Route: PTLD2 TIMEE J15 IMB DEVLE KYAAN3
File this flight plan on PilotEdge
Remarks:
Altitude:
(Current/Filed)
24,000ft
Speed:
(Current/Filed)
353kts
Departed: 07-Jan-22 09:33 PM
Arrived: 07-Jan-22 10:31 PM
Distance/Time
Traveled:
298nm/0:58
Distance/Time
To Go:
Arrived

Flight Plot

Page will automatically refresh every two minutes.

Flight plan parsing failed; only flown route is shown


Map Options




Map Legend


Flown Route
Filed Route
Departure Airport
Arrival Airport
Navaid (VOR, NDB)
Fix

Horizontal Profiles

Position Reports

Time Latitude Longitude Heading Altitude Ground
Speed
07-Jan-22 20:57 45.590623 -122.598658 209 37ft 0kts
07-Jan-22 20:58 45.590623 -122.598658 209 37ft 0kts
07-Jan-22 20:59 45.590623 -122.598658 209 37ft 0kts
07-Jan-22 21:00 45.590623 -122.598658 209 37ft 0kts
07-Jan-22 21:01 45.590623 -122.598658 209 37ft 0kts
07-Jan-22 21:02 45.590623 -122.598658 209 37ft 0kts
07-Jan-22 21:04 45.590623 -122.598658 209 37ft 0kts
07-Jan-22 21:05 45.590623 -122.598658 209 37ft 0kts
07-Jan-22 21:06 45.590623 -122.598658 209 37ft 0kts
07-Jan-22 21:07 45.590623 -122.598658 209 37ft 0kts
07-Jan-22 21:08 45.590623 -122.598658 209 37ft 0kts
07-Jan-22 21:09 45.590623 -122.598658 209 37ft 0kts
07-Jan-22 21:10 45.590623 -122.598658 209 37ft 0kts
07-Jan-22 21:11 45.590623 -122.598658 209 37ft 0kts
07-Jan-22 21:12 45.590623 -122.598658 209 37ft 0kts
07-Jan-22 21:13 45.590623 -122.598658 209 37ft 0kts
07-Jan-22 21:14 45.590623 -122.598658 209 37ft 0kts
07-Jan-22 21:15 45.590623 -122.598658 209 37ft 0kts
07-Jan-22 21:16 45.590623 -122.598658 209 37ft 0kts
07-Jan-22 21:17 45.590623 -122.598658 209 37ft 0kts
07-Jan-22 21:18 45.590623 -122.598658 209 37ft 0kts
07-Jan-22 21:19 45.590623 -122.598658 209 37ft 0kts
07-Jan-22 21:20 45.590797 -122.598508 216 37ft 2kts
07-Jan-22 21:21 45.590962 -122.597755 299 37ft 0kts
07-Jan-22 21:22 45.590962 -122.597755 299 37ft 0kts
07-Jan-22 21:23 45.590962 -122.597755 299 37ft 0kts
07-Jan-22 21:24 45.590962 -122.597755 299 37ft 0kts
07-Jan-22 21:25 45.591361 -122.598714 301 37ft 6kts
07-Jan-22 21:26 45.590845 -122.602748 224 37ft 16kts
07-Jan-22 21:26 45.588847 -122.601980 120 37ft 18kts
07-Jan-22 21:27 45.585998 -122.594710 119 37ft 18kts
07-Jan-22 21:29 45.583280 -122.587695 119 37ft 15kts
07-Jan-22 21:30 45.581726 -122.583779 129 37ft 5kts
07-Jan-22 21:30 45.581282 -122.583776 203 37ft 0kts
07-Jan-22 21:31 45.580778 -122.584568 294 37ft 6kts
07-Jan-22 21:32 45.590880 -122.610168 296 645ft 142kts
07-Jan-22 21:34 45.628966 -122.665792 315 3442ft 183kts
07-Jan-22 21:34 45.665531 -122.649527 71 5681ft 219kts
07-Jan-22 21:35 45.638981 -122.563826 136 7247ft 274kts
07-Jan-22 21:36 45.586334 -122.479629 136 9190ft 291kts
07-Jan-22 21:37 45.531077 -122.391694 136 10994ft 296kts
07-Jan-22 21:38 45.476168 -122.304629 136 13086ft 294kts
07-Jan-22 21:39 45.421167 -122.217060 136 15010ft 296kts
07-Jan-22 21:40 45.365909 -122.129359 137 16777ft 298kts
07-Jan-22 21:41 45.309714 -122.040666 138 18400ft 300kts
07-Jan-22 21:42 45.253023 -121.951910 138 19892ft 303kts
07-Jan-22 21:43 45.195865 -121.863071 139 21268ft 304kts
07-Jan-22 21:44 45.138191 -121.773933 139 22515ft 305kts
07-Jan-22 21:45 45.083510 -121.680261 117 23617ft 316kts
07-Jan-22 21:46 45.058164 -121.554906 105 23971ft 347kts
07-Jan-22 21:47 45.029151 -121.418207 108 23968ft 377kts
07-Jan-22 21:48 44.997446 -121.273229 107 23954ft 395kts
07-Jan-22 21:49 44.965047 -121.122542 107 23946ft 406kts
07-Jan-22 21:50 44.931551 -120.969207 108 23941ft 411kts
07-Jan-22 21:51 44.897937 -120.815716 108 23939ft 409kts
07-Jan-22 21:52 44.864228 -120.663470 108 24018ft 405kts
07-Jan-22 21:53 44.830961 -120.513746 108 24517ft 395kts
07-Jan-22 21:54 44.798157 -120.367442 109 24892ft 391kts
07-Jan-22 21:55 44.764939 -120.220703 108 24919ft 396kts
07-Jan-22 21:56 44.731301 -120.072302 109 24916ft 400kts
07-Jan-22 21:57 44.697530 -119.924302 109 24914ft 396kts
07-Jan-22 21:58 44.663769 -119.777984 109 24911ft 394kts
07-Jan-22 21:59 44.633415 -119.630405 103 24901ft 393kts
07-Jan-22 22:00 44.610261 -119.481441 103 24893ft 391kts
07-Jan-22 22:01 44.585234 -119.333234 104 24888ft 390kts
07-Jan-22 22:02 44.560140 -119.185278 104 24884ft 390kts
07-Jan-22 22:03 44.534945 -119.037908 104 24880ft 389kts
07-Jan-22 22:04 44.509527 -118.890485 105 24879ft 389kts
07-Jan-22 22:05 44.483795 -118.743661 105 24875ft 388kts
07-Jan-22 22:06 44.458082 -118.596871 105 24875ft 388kts
07-Jan-22 22:07 44.432228 -118.450537 105 24871ft 387kts
07-Jan-22 22:08 44.406310 -118.305257 105 24862ft 386kts
07-Jan-22 22:09 44.380250 -118.159654 105 24859ft 385kts
07-Jan-22 22:10 44.354032 -118.015015 105 24855ft 382kts
07-Jan-22 22:11 44.327794 -117.870651 105 23170ft 385kts
07-Jan-22 22:12 44.301170 -117.726310 105 21377ft 383kts
07-Jan-22 22:13 44.274696 -117.583013 105 19600ft 381kts
07-Jan-22 22:14 44.247996 -117.440256 105 17831ft 381kts
07-Jan-22 22:15 44.221149 -117.297683 105 16235ft 379kts
07-Jan-22 22:16 44.164065 -117.183524 142 14572ft 361kts
07-Jan-22 22:17 44.089854 -117.090061 139 12850ft 359kts
07-Jan-22 22:18 44.018323 -116.995597 139 11171ft 348kts
07-Jan-22 22:19 43.955901 -116.906737 126 9820ft 293kts
07-Jan-22 22:20 43.910627 -116.810963 125 9180ft 296kts
07-Jan-22 22:21 43.865116 -116.717243 127 8651ft 290kts
07-Jan-22 22:22 43.817850 -116.628457 142 8142ft 277kts
07-Jan-22 22:23 43.757371 -116.568243 146 7176ft 262kts
07-Jan-22 22:24 43.702037 -116.509970 144 6417ft 237kts
07-Jan-22 22:25 43.650750 -116.455317 143 6041ft 229kts
07-Jan-22 22:26 43.618189 -116.383703 113 4727ft 197kts
07-Jan-22 22:27 43.597475 -116.316731 115 4094ft 172kts
07-Jan-22 22:28 43.580234 -116.266058 115 3408ft 130kts
07-Jan-22 22:29 43.565923 -116.224357 115 2878ft 60kts
07-Jan-22 22:30 43.564321 -116.217247 356 2878ft 3kts
07-Jan-22 22:31 43.564365 -116.217250 356 2878ft 2kts
07-Jan-22 22:32 43.566295 -116.221822 300 2878ft 11kts
07-Jan-22 22:33 43.568047 -116.224474 25 2878ft 11kts
07-Jan-22 22:34 43.568384 -116.223836 95 2878ft 0kts
07-Jan-22 22:35 43.568384 -116.223836 95 2878ft 0kts
07-Jan-22 22:36 43.568384 -116.223836 95 2878ft 0kts
07-Jan-22 22:37 43.568384 -116.223836 95 2878ft 0kts
07-Jan-22 22:38 43.568384 -116.223836 95 2878ft 0kts

Navigation Log

Ident Type
Flight plan parsing failed, navigation log unavailable